createdAt,value
2018-09-12T00:00:04.447Z,0
2018-09-12T00:01:14.333Z,0
2018-09-12T00:02:23.497Z,0
2018-09-12T00:03:32.696Z,0
2018-09-12T00:04:42.139Z,0
2018-09-12T00:05:50.790Z,0
2018-09-12T00:07:00.497Z,0
2018-09-12T00:08:09.664Z,0
2018-09-12T00:09:19.621Z,0
2018-09-12T00:10:29.037Z,0
2018-09-12T00:11:38.994Z,0
2018-09-12T00:12:48.672Z,0
2018-09-12T00:13:57.891Z,0
2018-09-12T00:15:07.067Z,0
2018-09-12T00:16:16.238Z,0
2018-09-12T00:17:26.009Z,0
2018-09-12T00:18:35.443Z,0
2018-09-12T00:19:45.150Z,0
2018-09-12T00:20:54.332Z,0
2018-09-12T00:22:04.350Z,0
2018-09-12T00:23:14.049Z,0
2018-09-12T00:24:23.801Z,0
2018-09-12T00:25:32.972Z,0
2018-09-12T00:26:42.674Z,0
2018-09-12T00:27:52.126Z,0
2018-09-12T00:29:01.836Z,0
2018-09-12T00:30:11.266Z,0
2018-09-12T00:31:20.696Z,0
2018-09-12T00:32:30.128Z,0
2018-09-12T00:33:39.038Z,0
2018-09-12T00:34:48.264Z,0
2018-09-12T00:35:58.222Z,0
2018-09-12T00:37:07.449Z,0
2018-09-12T00:38:16.885Z,0
2018-09-12T00:39:25.797Z,0
2018-09-12T00:40:35.230Z,0
2018-09-12T00:41:44.646Z,0
2018-09-12T00:42:54.355Z,0
2018-09-12T00:44:03.781Z,0
2018-09-12T00:45:13.464Z,0
2018-09-12T00:46:22.641Z,0
2018-09-12T00:47:31.817Z,0
2018-09-12T00:48:41.255Z,0
2018-09-12T00:49:50.448Z,0
2018-09-12T00:51:00.434Z,0
2018-09-12T00:52:09.855Z,0
2018-09-12T00:53:18.768Z,0
2018-09-12T00:54:28.257Z,0
2018-09-12T00:55:37.946Z,0
2018-09-12T00:56:47.385Z,0
2018-09-12T00:57:56.547Z,0
2018-09-12T00:59:05.714Z,0
2018-09-12T01:00:15.167Z,0
2018-09-12T01:01:24.621Z,0
2018-09-12T01:02:34.315Z,0
2018-09-12T01:03:43.989Z,0
2018-09-12T01:04:53.444Z,0
2018-09-12T01:06:03.137Z,0
2018-09-12T01:07:13.137Z,0
2018-09-12T01:08:22.293Z,0
2018-09-12T01:09:31.989Z,0
2018-09-12T01:10:41.943Z,0
2018-09-12T01:11:51.138Z,0
2018-09-12T01:13:00.628Z,0
2018-09-12T01:14:10.002Z,0
2018-09-12T01:15:19.711Z,0
2018-09-12T01:16:29.680Z,0
2018-09-12T01:17:39.385Z,0
2018-09-12T01:18:49.068Z,0
2018-09-12T01:19:58.496Z,0
2018-09-12T01:21:07.924Z,0
2018-09-12T01:22:17.149Z,0
2018-09-12T01:23:26.332Z,0
2018-09-12T01:24:35.754Z,0
2018-09-12T01:25:45.471Z,0
2018-09-12T01:26:54.901Z,0
2018-09-12T01:28:04.574Z,0
2018-09-12T01:29:14.029Z,0
2018-09-12T01:30:23.719Z,0
2018-09-12T01:31:32.364Z,0
2018-09-12T01:32:41.534Z,0
2018-09-12T01:33:51.218Z,0
2018-09-12T01:35:01.166Z,0
2018-09-12T01:36:11.117Z,0
2018-09-12T01:37:20.564Z,0
2018-09-12T01:38:30.244Z,0
2018-09-12T01:39:39.684Z,0
2018-09-12T01:40:49.383Z,0
2018-09-12T01:41:58.286Z,0
2018-09-12T01:43:08.031Z,0
2018-09-12T01:44:17.971Z,0
2018-09-12T01:45:27.666Z,0
2018-09-12T01:46:37.376Z,0
2018-09-12T01:47:47.099Z,0
2018-09-12T01:48:56.261Z,0
2018-09-12T01:50:05.948Z,0
2018-09-12T01:51:15.918Z,0
2018-09-12T01:52:25.360Z,0
2018-09-12T01:53:35.410Z,0
2018-09-12T01:54:45.100Z,0
2018-09-12T01:55:54.553Z,0
2018-09-12T01:57:04.227Z,0
2018-09-12T01:58:13.936Z,0
2018-09-12T01:59:23.361Z,0
2018-09-12T02:00:32.264Z,0
2018-09-12T02:01:41.971Z,0
2018-09-12T02:02:51.409Z,0
2018-09-12T02:04:00.869Z,0
2018-09-12T02:05:10.807Z,0
2018-09-12T02:06:20.237Z,0
2018-09-12T02:07:29.651Z,0
2018-09-12T02:08:39.338Z,0
2018-09-12T02:09:49.274Z,0
2018-09-12T02:10:58.723Z,0
2018-09-12T02:12:08.150Z,0
2018-09-12T02:13:17.578Z,0
2018-09-12T02:14:27.256Z,0
2018-09-12T02:15:36.435Z,0
2018-09-12T02:16:45.120Z,0
2018-09-12T02:17:54.569Z,0
2018-09-12T02:19:04.251Z,0
2018-09-12T02:20:13.680Z,0
2018-09-12T02:21:23.405Z,0
2018-09-12T02:22:33.121Z,0
2018-09-12T02:23:42.545Z,0
2018-09-12T02:24:51.995Z,0
2018-09-12T02:26:01.729Z,0
2018-09-12T02:27:10.919Z,0
2018-09-12T02:28:20.627Z,0
2018-09-12T02:29:29.837Z,0
2018-09-12T02:30:39.268Z,0
2018-09-12T02:31:48.972Z,0
2018-09-12T02:32:58.960Z,0
2018-09-12T02:34:08.921Z,0
2018-09-12T02:35:18.606Z,0
2018-09-12T02:36:27.796Z,0
2018-09-12T02:37:37.487Z,0
2018-09-12T02:38:46.978Z,0
2018-09-12T02:39:56.674Z,0
2018-09-12T02:41:05.852Z,0
2018-09-12T02:42:15.038Z,0
2018-09-12T02:43:24.478Z,0
2018-09-12T02:44:33.902Z,0
2018-09-12T02:45:43.630Z,0
2018-09-12T02:46:53.300Z,0
2018-09-12T02:48:02.462Z,0
2018-09-12T02:49:11.917Z,0
2018-09-12T02:50:21.088Z,0
2018-09-12T02:51:30.777Z,0
2018-09-12T02:52:39.993Z,0
2018-09-12T02:53:49.165Z,0
2018-09-12T02:54:58.357Z,0
2018-09-12T02:56:08.032Z,0
2018-09-12T02:57:17.716Z,0
2018-09-12T02:58:27.391Z,0
2018-09-12T02:59:37.117Z,0
2018-09-12T03:00:46.294Z,0
2018-09-12T03:01:55.985Z,0
2018-09-12T03:03:05.690Z,0
2018-09-12T03:04:14.916Z,0
2018-09-12T03:05:24.878Z,0
2018-09-12T03:06:34.613Z,0
2018-09-12T03:07:43.875Z,0
2018-09-12T03:08:53.879Z,0
2018-09-12T03:10:03.556Z,0
2018-09-12T03:11:13.256Z,0
2018-09-12T03:12:22.695Z,0
2018-09-12T03:13:32.185Z,0
2018-09-12T03:14:41.097Z,0
2018-09-12T03:15:50.800Z,0
2018-09-12T03:17:00.521Z,0
2018-09-12T03:18:09.988Z,0
2018-09-12T03:19:19.429Z,0
2018-09-12T03:20:29.700Z,0
2018-09-12T03:21:38.893Z,0
2018-09-12T03:22:47.583Z,0
2018-09-12T03:23:57.524Z,0
2018-09-12T03:25:06.433Z,0
2018-09-12T03:26:15.890Z,0
2018-09-12T03:27:25.356Z,0
2018-09-12T03:28:34.792Z,0
2018-09-12T03:29:44.246Z,0
2018-09-12T03:30:53.929Z,0
2018-09-12T03:32:03.655Z,0
2018-09-12T03:33:45.182Z,0
2018-09-12T03:34:54.884Z,0
2018-09-12T03:36:04.084Z,0
2018-09-12T03:37:12.988Z,0
2018-09-12T03:38:21.910Z,0
2018-09-12T03:39:31.657Z,0
2018-09-12T03:40:41.389Z,0
2018-09-12T03:41:50.592Z,0
2018-09-12T03:42:59.764Z,0
2018-09-12T03:44:08.686Z,0
2018-09-12T03:45:18.114Z,0
2018-09-12T03:46:27.278Z,0
2018-09-12T03:47:36.966Z,0
2018-09-12T03:48:46.678Z,0
2018-09-12T03:49:55.872Z,0
2018-09-12T03:51:05.855Z,0
2018-09-12T03:52:15.849Z,0
2018-09-12T03:53:25.546Z,0
2018-09-12T03:54:34.966Z,0
2018-09-12T03:55:44.933Z,0
2018-09-12T03:56:54.614Z,0
2018-09-12T03:58:03.809Z,0
2018-09-12T03:59:13.227Z,0
2018-09-12T04:00:22.927Z,0
2018-09-12T04:01:32.116Z,0
2018-09-12T04:02:41.933Z,0
2018-09-12T04:03:51.388Z,0
2018-09-12T04:05:00.602Z,0
2018-09-12T04:06:09.783Z,0
2018-09-12T04:07:19.222Z,0
2018-09-12T04:08:29.189Z,0
2018-09-12T04:09:38.917Z,0
2018-09-12T04:10:48.669Z,0
2018-09-12T04:11:58.030Z,0
2018-09-12T04:13:07.714Z,0
2018-09-12T04:14:17.403Z,0
2018-09-12T04:15:26.831Z,0
2018-09-12T04:16:36.558Z,0
2018-09-12T04:17:46.011Z,0
2018-09-12T04:18:55.435Z,0
2018-09-12T04:20:05.376Z,0
2018-09-12T04:21:14.793Z,0
2018-09-12T04:22:24.211Z,0
2018-09-12T04:23:33.683Z,0
2018-09-12T04:24:43.405Z,0
2018-09-12T04:25:52.321Z,0
2018-09-12T04:27:01.480Z,0
2018-09-12T04:28:10.920Z,0
2018-09-12T04:29:20.104Z,0
2018-09-12T04:30:30.085Z,0
2018-09-12T04:31:39.520Z,0
2018-09-12T04:32:48.671Z,0
2018-09-12T04:33:58.383Z,0
2018-09-12T04:35:07.586Z,0
2018-09-12T04:36:17.313Z,0
2018-09-12T04:37:27.008Z,0
2018-09-12T04:38:36.700Z,0
2018-09-12T04:39:46.402Z,0
2018-09-12T04:40:55.892Z,0
2018-09-12T04:42:05.078Z,0
2018-09-12T04:43:14.255Z,0
2018-09-12T04:44:23.700Z,0
2018-09-12T04:45:33.117Z,0
2018-09-12T04:46:43.075Z,0
2018-09-12T04:47:52.765Z,0
2018-09-12T04:49:01.933Z,0
2018-09-12T04:50:11.627Z,0
2018-09-12T04:51:21.332Z,0
2018-09-12T04:52:30.495Z,0
2018-09-12T04:53:39.418Z,0
2018-09-12T04:54:49.104Z,0
2018-09-12T04:55:58.825Z,0
2018-09-12T04:57:07.986Z,0
2018-09-12T04:58:17.163Z,0
2018-09-12T04:59:26.096Z,0
2018-09-12T05:00:35.854Z,0
2018-09-12T05:01:45.445Z,0
2018-09-12T05:02:55.133Z,0
2018-09-12T05:04:04.384Z,0
2018-09-12T05:05:14.410Z,0
2018-09-12T05:06:23.845Z,0
2018-09-12T05:07:32.851Z,0
2018-09-12T05:08:42.319Z,0
2018-09-12T05:09:52.037Z,0
2018-09-12T05:11:01.711Z,0
2018-09-12T05:12:10.911Z,0
2018-09-12T05:13:19.857Z,0
2018-09-12T05:14:28.752Z,0
2018-09-12T05:15:38.449Z,0
2018-09-12T05:16:48.455Z,0
2018-09-12T05:17:57.947Z,0
2018-09-12T05:19:07.639Z,0
2018-09-12T05:20:16.815Z,0
2018-09-12T05:21:26.771Z,0
2018-09-12T05:22:36.506Z,0
2018-09-12T05:23:45.693Z,0
2018-09-12T05:24:54.889Z,0
2018-09-12T05:26:04.400Z,0
2018-09-12T05:27:13.590Z,0
2018-09-12T05:28:23.786Z,0
2018-09-12T05:29:33.172Z,0
2018-09-12T05:30:42.874Z,0
2018-09-12T05:31:52.045Z,0
2018-09-12T05:33:01.793Z,0
2018-09-12T05:34:11.749Z,0
2018-09-12T05:35:21.191Z,4
2018-09-12T05:36:30.262Z,4
2018-09-12T05:37:39.784Z,4
2018-09-12T05:38:49.511Z,0
2018-09-12T05:39:59.195Z,0
2018-09-12T05:41:08.634Z,4
2018-09-12T05:42:18.323Z,4
2018-09-12T05:43:28.015Z,4
2018-09-12T05:44:37.476Z,4
2018-09-12T05:45:46.911Z,4
2018-09-12T05:46:56.328Z,4
2018-09-12T05:48:06.354Z,4
2018-09-12T05:49:16.322Z,4
2018-09-12T05:50:25.929Z,4
2018-09-12T05:51:35.157Z,4
2018-09-12T05:52:44.592Z,4
2018-09-12T05:53:54.279Z,4
2018-09-12T05:55:03.710Z,4
2018-09-12T05:56:13.411Z,4
2018-09-12T05:57:23.084Z,0
2018-09-12T05:58:32.246Z,0
2018-09-12T05:59:41.710Z,0
2018-09-12T06:00:51.301Z,0
2018-09-12T06:02:00.986Z,0
2018-09-12T06:03:10.213Z,0
2018-09-12T06:04:19.954Z,0
2018-09-12T06:05:29.666Z,0
2018-09-12T06:06:39.727Z,0
2018-09-12T06:07:48.963Z,0
2018-09-12T06:08:57.882Z,0
2018-09-12T06:10:07.121Z,4
2018-09-12T06:11:16.549Z,4
2018-09-12T06:12:25.491Z,4
2018-09-12T06:13:34.917Z,4
2018-09-12T06:14:44.660Z,4
2018-09-12T06:15:53.856Z,4
2018-09-12T06:17:03.102Z,4
2018-09-12T06:18:12.556Z,4
2018-09-12T06:19:21.995Z,4
2018-09-12T06:20:31.443Z,4
2018-09-12T06:21:40.875Z,4
2018-09-12T06:22:50.063Z,4
2018-09-12T06:23:59.510Z,4
2018-09-12T06:25:08.966Z,4
2018-09-12T06:26:18.419Z,0
2018-09-12T06:27:28.411Z,0
2018-09-12T06:28:38.219Z,4
2018-09-12T06:29:47.641Z,4
2018-09-12T06:30:57.578Z,4
2018-09-12T06:32:06.734Z,4
2018-09-12T06:33:16.440Z,4
2018-09-12T06:34:25.862Z,4
2018-09-12T06:35:35.269Z,4
2018-09-12T06:36:44.418Z,4
2018-09-12T06:37:54.620Z,4
2018-09-12T06:39:04.150Z,4
2018-09-12T06:40:13.921Z,8
2018-09-12T06:41:23.367Z,8
2018-09-12T06:42:33.066Z,4
2018-09-12T06:43:42.762Z,4
2018-09-12T06:44:52.331Z,4
2018-09-12T06:46:01.801Z,4
2018-09-12T06:47:11.012Z,4
2018-09-12T06:48:20.748Z,4
2018-09-12T06:49:30.443Z,8
2018-09-12T06:50:40.140Z,8
2018-09-12T06:51:49.820Z,8
2018-09-12T06:52:59.798Z,4
2018-09-12T06:54:09.288Z,4
2018-09-12T06:55:18.494Z,4
2018-09-12T06:56:27.691Z,8
2018-09-12T06:57:37.141Z,8
2018-09-12T06:58:46.057Z,8
2018-09-12T06:59:55.791Z,8
2018-09-12T07:01:05.860Z,8
2018-09-12T07:02:15.428Z,8
2018-09-12T07:03:24.405Z,8
2018-09-12T07:04:33.325Z,8
2018-09-12T07:05:42.750Z,12
2018-09-12T07:06:51.925Z,8
2018-09-12T07:08:01.362Z,8
2018-09-12T07:09:10.526Z,8
2018-09-12T07:10:19.949Z,8
2018-09-12T07:11:29.742Z,12
2018-09-12T07:12:39.504Z,12
2018-09-12T07:13:49.216Z,8
2018-09-12T07:14:58.662Z,12
2018-09-12T07:16:07.864Z,12
2018-09-12T07:17:16.781Z,12
2018-09-12T07:18:25.970Z,16
2018-09-12T07:19:34.914Z,12
2018-09-12T07:20:44.623Z,16
2018-09-12T07:21:54.591Z,16
2018-09-12T07:23:04.036Z,16
2018-09-12T07:24:13.279Z,16
2018-09-12T07:25:23.008Z,16
2018-09-12T07:26:32.713Z,20
2018-09-12T07:27:42.419Z,16
2018-09-12T07:28:52.295Z,16
2018-09-12T07:30:01.755Z,20
2018-09-12T07:31:11.187Z,20
2018-09-12T07:32:20.407Z,20
2018-09-12T07:33:30.098Z,20
2018-09-12T07:34:39.792Z,16
2018-09-12T07:35:49.509Z,20
2018-09-12T07:36:58.705Z,20
2018-09-12T07:38:07.623Z,24
2018-09-12T07:39:17.056Z,24
2018-09-12T07:40:26.494Z,24
2018-09-12T07:41:36.063Z,24
2018-09-12T07:42:45.503Z,20
2018-09-12T07:43:54.683Z,20
2018-09-12T07:45:03.883Z,20
2018-09-12T07:46:13.315Z,24
2018-09-12T07:47:22.996Z,24
2018-09-12T07:48:32.678Z,20
2018-09-12T07:49:42.368Z,20
2018-09-12T07:50:51.788Z,20
2018-09-12T07:52:00.995Z,20
2018-09-12T07:53:10.162Z,24
2018-09-12T07:54:20.147Z,20
2018-09-12T07:55:30.161Z,24
2018-09-12T07:56:39.634Z,28
2018-09-12T07:57:49.387Z,24
2018-09-12T07:58:58.558Z,20
2018-09-12T08:00:07.986Z,12
2018-09-12T08:01:18.227Z,20
2018-09-12T08:02:28.229Z,20
2018-09-12T08:03:37.942Z,20
2018-09-12T08:04:47.945Z,16
2018-09-12T08:05:57.421Z,16
2018-09-12T08:07:06.876Z,20
2018-09-12T08:08:16.352Z,20
2018-09-12T08:09:26.561Z,20
2018-09-12T08:10:35.800Z,24
2018-09-12T08:11:45.276Z,24
2018-09-12T08:12:54.523Z,24
2018-09-12T08:14:04.010Z,24
2018-09-12T08:15:13.445Z,20
2018-09-12T08:16:22.683Z,20
2018-09-12T08:17:32.166Z,20
2018-09-12T08:18:41.134Z,24
2018-09-12T08:19:50.603Z,24
2018-09-12T08:21:00.086Z,20
2018-09-12T08:22:10.116Z,24
2018-09-12T08:23:19.296Z,24
2018-09-12T08:24:28.747Z,24
2018-09-12T08:25:38.436Z,24
2018-09-12T08:26:48.369Z,28
2018-09-12T08:27:58.501Z,24
2018-09-12T08:29:08.486Z,24
2018-09-12T08:30:18.481Z,24
2018-09-12T08:31:28.230Z,24
2018-09-12T08:32:37.708Z,28
2018-09-12T08:33:47.704Z,28
2018-09-12T08:34:56.931Z,28
2018-09-12T08:36:06.688Z,24
2018-09-12T08:37:16.400Z,24
2018-09-12T08:38:25.604Z,24
2018-09-12T08:39:35.047Z,28
2018-09-12T08:40:44.226Z,28
2018-09-12T08:41:53.925Z,28
2018-09-12T08:43:03.456Z,28
2018-09-12T08:44:12.748Z,28
2018-09-12T08:45:22.720Z,28
2018-09-12T08:46:32.692Z,28
2018-09-12T08:47:42.531Z,28
2018-09-12T08:48:52.039Z,24
2018-09-12T08:50:01.727Z,28
2018-09-12T08:51:11.446Z,28
2018-09-12T08:52:21.130Z,28
2018-09-12T08:53:30.294Z,32
2018-09-12T08:54:39.983Z,28
2018-09-12T08:55:49.149Z,28
2018-09-12T08:56:59.256Z,32
2018-09-12T08:58:08.437Z,32
2018-09-12T08:59:17.871Z,28
2018-09-12T09:00:27.205Z,32
2018-09-12T09:01:37.368Z,32
2018-09-12T09:02:46.912Z,32
2018-09-12T09:03:56.716Z,36
2018-09-12T09:05:06.495Z,36
2018-09-12T09:06:16.171Z,32
2018-09-12T09:07:25.871Z,32
2018-09-12T09:08:35.302Z,32
2018-09-12T09:09:44.485Z,36
2018-09-12T09:10:54.453Z,36
2018-09-12T09:12:03.941Z,36
2018-09-12T09:13:13.128Z,36
2018-09-12T09:14:22.325Z,36
2018-09-12T09:15:31.753Z,36
2018-09-12T09:16:41.191Z,32
2018-09-12T09:17:50.641Z,32
2018-09-12T09:18:59.300Z,32
2018-09-12T09:20:08.770Z,32
2018-09-12T09:21:18.203Z,32
2018-09-12T09:22:27.946Z,36
2018-09-12T09:23:37.158Z,32
2018-09-12T09:24:47.186Z,36
2018-09-12T09:25:56.849Z,32
2018-09-12T09:27:06.555Z,36
2018-09-12T09:28:16.278Z,36
2018-09-12T09:29:25.825Z,8
2018-09-12T09:30:35.762Z,36
2018-09-12T09:31:45.574Z,36
2018-09-12T09:32:55.810Z,8
2018-09-12T09:34:05.042Z,36
2018-09-12T09:35:14.502Z,32
2018-09-12T09:36:24.132Z,32
2018-09-12T09:37:33.587Z,36
2018-09-12T09:38:42.815Z,36
2018-09-12T09:39:52.304Z,36
2018-09-12T09:41:01.805Z,20
2018-09-12T09:42:11.858Z,36
2018-09-12T09:43:21.354Z,32
2018-09-12T09:44:30.889Z,32
2018-09-12T09:45:40.376Z,32
2018-09-12T09:46:50.122Z,36
2018-09-12T09:48:00.436Z,32
2018-09-12T09:49:09.967Z,32
2018-09-12T09:50:19.427Z,32
2018-09-12T09:51:28.391Z,32
2018-09-12T09:52:37.868Z,32
2018-09-12T09:53:47.582Z,32
2018-09-12T09:54:56.904Z,32
2018-09-12T09:56:06.673Z,32
2018-09-12T09:57:16.508Z,4
2018-09-12T09:58:25.984Z,32
2018-09-12T09:59:35.739Z,32
2018-09-12T10:00:45.744Z,32
2018-09-12T10:01:55.231Z,32
2018-09-12T10:03:04.199Z,32
2018-09-12T10:04:13.391Z,28
2018-09-12T10:05:22.585Z,16
2018-09-12T10:06:32.343Z,8
2018-09-12T10:07:41.786Z,8
2018-09-12T10:08:50.687Z,20
2018-09-12T10:09:59.603Z,8
2018-09-12T10:11:08.518Z,12
2018-09-12T10:12:18.210Z,16
2018-09-12T10:13:27.888Z,32
2018-09-12T10:14:37.579Z,32
2018-09-12T10:15:47.007Z,24
2018-09-12T10:16:56.546Z,8
2018-09-12T10:18:06.241Z,8
2018-09-12T10:19:15.699Z,32
2018-09-12T10:20:24.879Z,8
2018-09-12T10:21:34.293Z,24
2018-09-12T10:22:44.096Z,32
2018-09-12T10:23:53.275Z,32
2018-09-12T10:25:02.701Z,32
2018-09-12T10:26:12.474Z,12
2018-09-12T10:27:21.910Z,32
2018-09-12T10:28:31.077Z,32
2018-09-12T10:29:40.509Z,32
2018-09-12T10:30:49.403Z,32
2018-09-12T10:31:58.559Z,32
2018-09-12T10:33:08.259Z,28
2018-09-12T10:34:17.169Z,32
2018-09-12T10:35:26.844Z,20
2018-09-12T10:36:36.618Z,32
2018-09-12T10:37:46.033Z,32
2018-09-12T10:38:55.467Z,32
2018-09-12T10:40:05.503Z,8
2018-09-12T10:41:15.096Z,8
2018-09-12T10:42:24.796Z,28
2018-09-12T10:43:34.272Z,28
2018-09-12T10:44:43.973Z,32
2018-09-12T10:45:53.146Z,12
2018-09-12T10:47:02.574Z,32
2018-09-12T10:48:12.777Z,32
2018-09-12T10:49:21.949Z,32
2018-09-12T10:50:31.692Z,16
2018-09-12T10:51:40.861Z,20
2018-09-12T10:52:50.031Z,12
2018-09-12T10:53:58.954Z,16
2018-09-12T10:55:08.661Z,32
2018-09-12T10:56:18.094Z,32
2018-09-12T10:57:27.879Z,32
2018-09-12T10:58:37.314Z,32
2018-09-12T10:59:46.474Z,32
2018-09-12T11:00:55.889Z,32
2018-09-12T11:02:05.057Z,28
2018-09-12T11:03:14.231Z,12
2018-09-12T11:04:24.133Z,32
2018-09-12T11:05:33.675Z,32
2018-09-12T11:06:42.336Z,12
2018-09-12T11:07:51.821Z,12
2018-09-12T11:09:01.247Z,12
2018-09-12T11:10:10.667Z,28
2018-09-12T11:11:20.092Z,28
2018-09-12T11:12:29.774Z,28
2018-09-12T11:13:39.189Z,28
2018-09-12T11:14:48.616Z,28
2018-09-12T11:15:57.835Z,28
2018-09-12T11:17:07.305Z,28
2018-09-12T11:18:16.732Z,28
2018-09-12T11:19:26.173Z,24
2018-09-12T11:20:35.331Z,28
2018-09-12T11:21:44.759Z,24
2018-09-12T11:22:53.671Z,24
2018-09-12T11:24:03.673Z,24
2018-09-12T11:25:13.153Z,24
2018-09-12T11:26:22.071Z,24
2018-09-12T11:27:30.977Z,24
2018-09-12T11:28:40.698Z,20
2018-09-12T11:29:50.415Z,20
2018-09-12T11:31:00.121Z,20
2018-09-12T11:32:09.337Z,20
2018-09-12T11:33:19.016Z,20
2018-09-12T11:34:28.257Z,20
2018-09-12T11:35:38.387Z,24
2018-09-12T11:36:47.816Z,24
2018-09-12T11:37:57.237Z,20
2018-09-12T11:39:06.412Z,20
2018-09-12T11:40:16.285Z,20
2018-09-12T11:41:26.036Z,24
2018-09-12T11:42:35.206Z,24
2018-09-12T11:43:44.882Z,24
2018-09-12T11:44:54.824Z,28
2018-09-12T11:46:04.308Z,28
2018-09-12T11:47:13.594Z,28
2018-09-12T11:48:23.282Z,28
2018-09-12T11:49:32.031Z,28
2018-09-12T11:50:41.535Z,28
2018-09-12T11:51:51.216Z,24
2018-09-12T11:53:00.899Z,28
2018-09-12T11:54:10.574Z,28
2018-09-12T11:55:19.733Z,12
2018-09-12T11:56:29.256Z,20
2018-09-12T11:57:38.946Z,20
2018-09-12T11:58:48.637Z,8
2018-09-12T11:59:57.829Z,4
2018-09-12T12:01:07.301Z,8
2018-09-12T12:02:17.564Z,8
2018-09-12T12:03:27.815Z,8
2018-09-12T12:04:37.001Z,8
2018-09-12T12:05:46.182Z,24
2018-09-12T12:06:55.891Z,28
2018-09-12T12:08:05.069Z,12
2018-09-12T12:09:14.250Z,8
2018-09-12T12:10:23.176Z,8
2018-09-12T12:11:32.365Z,12
2018-09-12T12:12:42.168Z,12
2018-09-12T12:13:51.635Z,32
2018-09-12T12:15:00.817Z,32
2018-09-12T12:16:09.763Z,36
2018-09-12T12:17:19.445Z,40
2018-09-12T12:18:29.144Z,36
2018-09-12T12:19:38.572Z,40
2018-09-12T12:20:48.000Z,36
2018-09-12T12:21:57.164Z,36
2018-09-12T12:23:06.988Z,36
2018-09-12T12:24:16.780Z,36
2018-09-12T12:25:25.937Z,36
2018-09-12T12:26:35.117Z,8
2018-09-12T12:27:44.610Z,12
2018-09-12T12:28:54.288Z,12
2018-09-12T12:30:03.445Z,12
2018-09-12T12:31:13.147Z,40
2018-09-12T12:32:22.304Z,12
2018-09-12T12:33:31.238Z,12
2018-09-12T12:34:40.962Z,12
2018-09-12T12:35:50.134Z,32
2018-09-12T12:37:00.087Z,40
2018-09-12T12:38:09.540Z,40
2018-09-12T12:39:19.031Z,40
2018-09-12T12:40:28.207Z,36
2018-09-12T12:41:37.643Z,40
2018-09-12T12:42:47.598Z,36
2018-09-12T12:43:56.779Z,36
2018-09-12T12:45:06.187Z,40
2018-09-12T12:46:15.940Z,40
2018-09-12T12:47:25.359Z,44
2018-09-12T12:48:35.044Z,44
2018-09-12T12:49:43.944Z,44
2018-09-12T12:50:53.367Z,36
2018-09-12T12:52:03.047Z,44
2018-09-12T12:53:12.990Z,48
2018-09-12T12:54:22.428Z,48
2018-09-12T12:55:32.121Z,48
2018-09-12T12:56:41.310Z,52
2018-09-12T12:57:50.746Z,52
2018-09-12T12:59:00.217Z,56
2018-09-12T13:00:09.913Z,60
2018-09-12T13:01:19.848Z,60
2018-09-12T13:02:29.043Z,60
2018-09-12T13:03:38.220Z,60
2018-09-12T13:04:47.689Z,56
2018-09-12T13:05:57.401Z,12
2018-09-12T13:07:07.240Z,60
2018-09-12T13:08:16.709Z,60
2018-09-12T13:09:26.762Z,60
2018-09-12T13:10:36.288Z,64
2018-09-12T13:11:45.738Z,60
2018-09-12T13:12:54.732Z,60
2018-09-12T13:14:04.780Z,64
2018-09-12T13:15:14.320Z,64
2018-09-12T13:16:24.084Z,64
2018-09-12T13:17:33.862Z,64
2018-09-12T13:18:43.385Z,16
2018-09-12T13:19:53.223Z,16
2018-09-12T13:21:02.728Z,68
2018-09-12T13:22:11.957Z,68
2018-09-12T13:23:21.743Z,68
2018-09-12T13:24:31.539Z,68
2018-09-12T13:25:41.261Z,72
2018-09-12T13:26:51.029Z,72
2018-09-12T13:28:00.829Z,72
2018-09-12T13:29:10.360Z,72
2018-09-12T13:30:19.841Z,72
2018-09-12T13:31:28.832Z,12
2018-09-12T13:32:38.017Z,72
2018-09-12T13:33:46.911Z,76
2018-09-12T13:34:56.349Z,76
2018-09-12T13:36:06.035Z,76
2018-09-12T13:37:15.787Z,52
2018-09-12T13:38:24.703Z,72
2018-09-12T13:39:34.152Z,76
2018-09-12T13:40:43.867Z,20
2018-09-12T13:41:53.099Z,16
2018-09-12T13:43:02.842Z,12
2018-09-12T13:44:12.081Z,24
2018-09-12T13:45:21.266Z,76
2018-09-12T13:46:30.867Z,76
2018-09-12T13:47:40.622Z,80
2018-09-12T13:48:49.884Z,76
2018-09-12T13:49:59.116Z,76
2018-09-12T13:51:08.658Z,76
2018-09-12T13:52:18.128Z,76
2018-09-12T13:53:27.585Z,28
2018-09-12T13:54:37.604Z,76
2018-09-12T13:55:47.423Z,76
2018-09-12T13:56:56.667Z,76
2018-09-12T13:58:06.214Z,16
2018-09-12T13:59:15.714Z,80
2018-09-12T14:00:25.165Z,80
2018-09-12T14:01:34.875Z,76
2018-09-12T14:02:45.840Z,80
2018-09-12T14:03:55.634Z,12
2018-09-12T14:05:05.141Z,8
2018-09-12T14:06:14.333Z,72
2018-09-12T14:07:23.540Z,68
2018-09-12T14:08:33.299Z,76
2018-09-12T14:09:42.243Z,56
2018-09-12T14:10:51.446Z,64
2018-09-12T14:12:00.660Z,72
2018-09-12T14:13:09.926Z,44
2018-09-12T14:14:19.844Z,44
2018-09-12T14:15:29.315Z,24
2018-09-12T14:16:39.010Z,72
2018-09-12T14:17:48.700Z,40
2018-09-12T14:18:57.885Z,68
2018-09-12T14:20:07.367Z,64
2018-09-12T14:21:17.056Z,52
2018-09-12T14:22:26.813Z,44
2018-09-12T14:23:36.259Z,36
2018-09-12T14:24:45.714Z,28
2018-09-12T14:25:55.167Z,16
2018-09-12T14:27:04.856Z,16
2018-09-12T14:28:14.310Z,12
2018-09-12T14:29:24.018Z,16
2018-09-12T14:30:33.474Z,16
2018-09-12T14:31:43.305Z,16
2018-09-12T14:32:52.476Z,16
2018-09-12T14:34:01.404Z,16
2018-09-12T14:35:10.688Z,16
2018-09-12T14:36:20.391Z,16
2018-09-12T14:37:29.613Z,20
2018-09-12T14:38:38.781Z,20
2018-09-12T14:39:48.274Z,16
2018-09-12T14:40:57.747Z,16
2018-09-12T14:42:07.538Z,16
2018-09-12T14:43:17.513Z,16
2018-09-12T14:44:26.498Z,12
2018-09-12T14:45:35.923Z,12
2018-09-12T14:46:45.097Z,8
2018-09-12T14:47:54.016Z,12
2018-09-12T14:49:03.449Z,12
2018-09-12T14:50:12.663Z,12
2018-09-12T14:51:21.923Z,12
2018-09-12T14:52:30.886Z,12
2018-09-12T14:53:40.064Z,12
2018-09-12T14:54:48.726Z,12
2018-09-12T14:55:58.454Z,12
2018-09-12T14:57:07.921Z,12
2018-09-12T14:58:16.828Z,12
2018-09-12T14:59:25.752Z,12
2018-09-12T15:00:34.664Z,12
2018-09-12T15:01:44.377Z,8
2018-09-12T15:02:53.539Z,12
2018-09-12T15:04:02.967Z,8
2018-09-12T15:05:12.412Z,8
2018-09-12T15:06:21.948Z,12
2018-09-12T15:07:31.623Z,12
2018-09-12T15:08:41.048Z,8
2018-09-12T15:09:50.754Z,8
2018-09-12T15:11:00.434Z,8
2018-09-12T15:12:09.614Z,12
2018-09-12T15:13:18.784Z,12
2018-09-12T15:14:28.225Z,8
2018-09-12T15:15:37.894Z,8
2018-09-12T15:16:47.305Z,8
2018-09-12T15:17:56.306Z,8
2018-09-12T15:19:05.487Z,12
2018-09-12T15:20:15.460Z,8
2018-09-12T15:21:24.910Z,8
2018-09-12T15:22:34.664Z,8
2018-09-12T15:23:44.343Z,8
2018-09-12T15:24:52.989Z,8
2018-09-12T15:26:02.691Z,8
2018-09-12T15:27:12.299Z,8
2018-09-12T15:28:21.463Z,8
2018-09-12T15:29:31.141Z,8
2018-09-12T15:30:41.090Z,8
2018-09-12T15:31:50.529Z,8
2018-09-12T15:33:00.243Z,8
2018-09-12T15:34:09.668Z,4
2018-09-12T15:35:18.676Z,8
2018-09-12T15:36:27.878Z,8
2018-09-12T15:37:37.828Z,12
2018-09-12T15:38:47.256Z,8
2018-09-12T15:39:56.160Z,12
2018-09-12T15:41:06.172Z,8
2018-09-12T15:42:15.603Z,8
2018-09-12T15:43:25.091Z,8
2018-09-12T15:44:35.042Z,8
2018-09-12T15:45:43.946Z,8
2018-09-12T15:46:53.636Z,12
2018-09-12T15:48:02.806Z,8
2018-09-12T15:49:12.599Z,8
2018-09-12T15:50:22.021Z,8
2018-09-12T15:51:31.694Z,4
2018-09-12T15:52:41.544Z,4
2018-09-12T15:53:50.692Z,4
2018-09-12T15:55:00.389Z,4
2018-09-12T15:56:09.810Z,4
2018-09-12T15:57:19.238Z,4
2018-09-12T15:58:29.028Z,4
2018-09-12T15:59:37.684Z,4
2018-09-12T16:00:47.384Z,4
2018-09-12T16:01:56.611Z,4
2018-09-12T16:03:05.786Z,8
2018-09-12T16:04:15.476Z,4
2018-09-12T16:05:25.193Z,4
2018-09-12T16:06:34.363Z,4
2018-09-12T16:07:43.841Z,8
2018-09-12T16:08:53.062Z,4
2018-09-12T16:10:02.736Z,4
2018-09-12T16:11:11.629Z,4
2018-09-12T16:12:20.809Z,4
2018-09-12T16:13:29.717Z,4
2018-09-12T16:14:38.889Z,4
2018-09-12T16:15:48.564Z,4
2018-09-12T16:16:58.443Z,4
2018-09-12T16:18:07.789Z,4
2018-09-12T16:19:16.966Z,8
2018-09-12T16:20:26.637Z,4
2018-09-12T16:21:36.067Z,8
2018-09-12T16:22:45.049Z,8
2018-09-12T16:23:54.472Z,8
2018-09-12T16:25:04.167Z,8
2018-09-12T16:26:14.111Z,8
2018-09-12T16:27:23.808Z,4
2018-09-12T16:28:32.740Z,8
2018-09-12T16:29:42.440Z,8
2018-09-12T16:30:51.615Z,4
2018-09-12T16:32:01.058Z,4
2018-09-12T16:33:11.111Z,8
2018-09-12T16:34:20.287Z,4
2018-09-12T16:35:29.482Z,4
2018-09-12T16:36:38.760Z,4
2018-09-12T16:37:48.918Z,4
2018-09-12T16:38:58.438Z,4
2018-09-12T16:40:08.337Z,4
2018-09-12T16:41:17.735Z,4
2018-09-12T16:42:27.442Z,4
2018-09-12T16:43:36.664Z,4
2018-09-12T16:44:46.658Z,4
2018-09-12T16:45:56.168Z,4
2018-09-12T16:47:05.861Z,4
2018-09-12T16:48:15.328Z,4
2018-09-12T16:49:24.802Z,4
2018-09-12T16:50:34.314Z,4